Time;durP1;ratioP1;P1;durP2;ratioP2;P2;SDS_P1;SDS_P2;PMS_P1;PMS_P2;Temp;Humidity;BMP_temperature;BMP_pressure;BME280_temperature;BME280_humidity;BME280_pressure;Samples;Min_cycle;Max_cycle;Signal;HPM_P1;HPM_P2
2022/03/09 00:01:19;;;;;;;14.02;9.80;;;9.90;99.90;;;;;;5041841;28;20089;-70
2022/03/09 00:03:45;;;;;;;15.23;11.32;;;9.90;99.90;;;;;;5080159;28;20040;-70
2022/03/09 00:06:10;;;;;;;18.30;12.90;;;9.90;99.90;;;;;;5055611;28;20040;-71
2022/03/09 00:08:37;;;;;;;17.05;13.10;;;9.90;99.90;;;;;;5038820;28;20407;-71
2022/03/09 00:11:02;;;;;;;17.42;13.30;;;9.90;99.90;;;;;;5048300;28;20045;-70
2022/03/09 00:13:28;;;;;;;16.17;12.27;;;9.80;99.90;;;;;;5052366;28;20052;-72
2022/03/09 00:15:54;;;;;;;19.15;13.20;;;9.80;99.90;;;;;;5034816;28;20036;-70
2022/03/09 00:18:20;;;;;;;18.35;12.43;;;9.80;99.90;;;;;;5050467;28;20041;-71
2022/03/09 00:20:46;;;;;;;17.63;12.07;;;9.80;99.90;;;;;;5050337;28;20412;-70
2022/03/09 00:23:13;;;;;;;13.70;10.32;;;9.80;99.90;;;;;;5053365;28;20083;-70
2022/03/09 00:25:39;;;;;;;13.00;9.95;;;9.80;99.90;;;;;;5054796;28;20040;-70
2022/03/09 00:28:05;;;;;;;13.13;8.55;;;9.80;99.90;;;;;;5051751;28;20039;-69
2022/03/09 00:30:31;;;;;;;11.15;8.90;;;9.80;99.90;;;;;;5037056;28;20480;-70
2022/03/09 00:32:57;;;;;;;11.02;8.50;;;9.70;99.90;;;;;;5053460;28;20032;-70
2022/03/09 00:35:23;;;;;;;11.63;8.80;;;9.70;99.90;;;;;;5031984;28;20075;-71
2022/03/09 00:37:49;;;;;;;14.20;9.15;;;9.70;99.90;;;;;;5046818;28;20429;-71
2022/03/09 00:40:16;;;;;;;10.82;8.43;;;9.70;99.90;;;;;;5050878;28;20036;-70
2022/03/09 00:42:41;;;;;;;10.50;8.00;;;9.70;99.90;;;;;;5050705;28;20041;-70
2022/03/09 00:45:08;;;;;;;10.43;7.97;;;9.70;99.90;;;;;;5066354;28;20045;-71
2022/03/09 00:47:34;;;;;;;8.40;6.60;;;9.70;99.90;;;;;;5051515;28;20040;-70
2022/03/09 00:50:00;;;;;;;8.77;6.20;;;9.70;99.90;;;;;;5049932;28;20364;-70
2022/03/09 00:52:26;;;;;;;7.25;4.80;;;9.70;99.90;;;;;;5054005;28;20048;-70
2022/03/09 00:54:52;;;;;;;9.63;5.85;;;9.80;99.90;;;;;;5057417;28;20119;-70
2022/03/09 00:57:18;;;;;;;8.90;6.10;;;9.70;99.90;;;;;;5056636;28;20209;-71
2022/03/09 00:59:44;;;;;;;9.65;6.55;;;9.70;99.90;;;;;;5056059;28;20037;-70
2022/03/09 01:02:10;;;;;;;7.43;5.97;;;9.70;99.90;;;;;;5031759;28;20389;-69
2022/03/09 01:04:37;;;;;;;9.57;6.82;;;9.60;99.90;;;;;;5050512;28;20078;-70
2022/03/09 01:07:04;;;;;;;8.60;6.93;;;9.60;99.90;;;;;;5052398;28;20053;-70
2022/03/09 01:09:31;;;;;;;8.98;5.55;;;9.60;99.90;;;;;;5053318;28;20045;-70
2022/03/09 01:11:57;;;;;;;6.50;4.22;;;9.50;99.90;;;;;;5041542;28;20078;-69
2022/03/09 01:14:24;;;;;;;7.15;4.68;;;9.50;99.90;;;;;;5067816;28;20044;-71
2022/03/09 01:16:50;;;;;;;5.60;3.95;;;9.50;99.90;;;;;;5073598;28;20113;-70
2022/03/09 01:19:18;;;;;;;6.45;3.65;;;9.50;99.90;;;;;;5069277;28;20040;-71
2022/03/09 01:21:43;;;;;;;4.20;2.78;;;9.50;99.90;;;;;;5073315;28;20047;-70
2022/03/09 01:24:10;;;;;;;5.38;3.10;;;9.50;99.90;;;;;;5073560;28;20032;-71
2022/03/09 01:26:36;;;;;;;6.20;2.97;;;9.50;99.90;;;;;;5068219;28;20224;-70
2022/03/09 01:29:03;;;;;;;4.68;2.90;;;9.50;99.90;;;;;;5074142;28;20087;-70
2022/03/09 01:31:30;;;;;;;4.55;3.00;;;9.50;99.90;;;;;;5072666;28;20029;-71
2022/03/09 01:33:56;;;;;;;4.85;2.83;;;9.50;99.90;;;;;;5055417;28;20040;-70
2022/03/09 01:36:21;;;;;;;5.57;3.30;;;9.50;99.90;;;;;;5048297;28;20094;-70
2022/03/09 01:38:47;;;;;;;5.38;2.72;;;9.50;99.90;;;;;;5073083;28;20094;-71
2022/03/09 01:41:13;;;;;;;4.80;3.20;;;9.50;99.90;;;;;;5070827;28;20036;-71
2022/03/09 01:43:39;;;;;;;4.15;3.10;;;9.50;99.90;;;;;;5035291;28;20029;-72
2022/03/09 01:46:05;;;;;;;5.95;3.50;;;9.50;99.90;;;;;;5077753;28;20051;-70
2022/03/09 01:48:31;;;;;;;5.65;3.45;;;9.40;99.90;;;;;;5075235;28;20048;-71
2022/03/09 01:50:58;;;;;;;5.53;3.67;;;9.40;99.90;;;;;;5071273;28;20153;-70
2022/03/09 01:53:23;;;;;;;5.32;3.90;;;9.40;99.90;;;;;;5071777;28;20028;-71
2022/03/09 01:55:49;;;;;;;7.57;3.38;;;9.30;99.90;;;;;;5072741;28;20400;-71
2022/03/09 01:58:15;;;;;;;4.97;3.53;;;9.30;99.90;;;;;;5071619;28;20502;-71
2022/03/09 02:00:41;;;;;;;5.35;3.08;;;9.30;99.90;;;;;;5056381;28;20044;-70
2022/03/09 02:03:06;;;;;;;4.78;3.22;;;9.30;99.90;;;;;;5077437;28;20047;-70
2022/03/09 02:05:34;;;;;;;5.72;2.88;;;9.30;99.90;;;;;;5075058;28;20040;-70
2022/03/09 02:10:46;;;;;;;4.80;3.00;;;9.30;99.90;;;;;;5075559;28;20058;-69
2022/03/09 02:13:12;;;;;;;5.03;2.90;;;9.20;99.90;;;;;;5071190;28;20036;-69
2022/03/09 02:15:37;;;;;;;4.22;2.70;;;9.30;99.90;;;;;;5072412;28;20036;-70
2022/03/09 02:18:04;;;;;;;4.10;2.90;;;9.30;99.90;;;;;;5066987;28;20074;-70
2022/03/09 02:20:30;;;;;;;3.85;2.25;;;9.20;99.90;;;;;;5079432;28;20082;-69
2022/03/09 02:22:56;;;;;;;3.50;2.50;;;9.30;99.90;;;;;;5058420;28;20439;-71
2022/03/09 02:25:22;;;;;;;5.22;2.70;;;9.30;99.90;;;;;;5078940;28;20052;-71
2022/03/09 02:27:48;;;;;;;5.05;2.72;;;9.30;99.90;;;;;;5073587;28;20037;-70
2022/03/09 02:30:18;;;;;;;4.07;3.00;;;9.30;99.90;;;;;;5069971;28;20120;-71
2022/03/09 02:32:46;;;;;;;7.65;3.30;;;9.20;99.90;;;;;;5073889;28;20041;-71
2022/03/09 02:35:15;;;;;;;5.78;3.80;;;9.30;99.90;;;;;;5074393;28;20135;-71
2022/03/09 02:37:41;;;;;;;4.85;3.60;;;9.20;99.90;;;;;;5074821;28;20048;-71
2022/03/09 02:40:09;;;;;;;6.07;4.10;;;9.20;99.90;;;;;;5065487;28;20079;-73
2022/03/09 02:42:35;;;;;;;6.32;3.92;;;9.20;99.90;;;;;;5065596;28;20712;-72
2022/03/09 02:45:02;;;;;;;5.80;4.38;;;9.20;99.90;;;;;;5050123;28;20094;-72
2022/03/09 02:47:27;;;;;;;7.10;5.07;;;9.20;99.90;;;;;;5073654;28;20049;-71
2022/03/09 02:49:53;;;;;;;6.10;4.72;;;9.20;99.90;;;;;;5076280;28;20572;-72
2022/03/09 02:52:19;;;;;;;8.00;5.03;;;9.20;99.90;;;;;;5075846;28;20111;-72
2022/03/09 02:54:45;;;;;;;8.50;5.47;;;9.10;99.90;;;;;;5080943;28;20167;-70
2022/03/09 02:57:10;;;;;;;8.10;5.32;;;9.10;99.90;;;;;;5059247;28;20040;-69
2022/03/09 02:59:36;;;;;;;7.22;4.85;;;9.10;99.90;;;;;;5063083;28;20192;-71
2022/03/09 03:02:03;;;;;;;5.80;4.78;;;9.10;99.90;;;;;;5073641;28;20084;-71
2022/03/09 03:04:28;;;;;;;8.10;5.32;;;9.10;99.90;;;;;;5075726;28;20040;-70
2022/03/09 03:06:54;;;;;;;7.22;4.85;;;9.00;99.90;;;;;;5079938;28;20063;-71
2022/03/09 03:09:20;;;;;;;6.07;4.75;;;9.00;99.90;;;;;;5076040;28;20157;-70
2022/03/09 03:11:46;;;;;;;8.05;4.95;;;9.00;99.90;;;;;;5073521;28;20039;-71
2022/03/09 03:14:12;;;;;;;7.78;4.45;;;9.10;99.90;;;;;;5078027;28;20060;-71
2022/03/09 03:16:37;;;;;;;6.13;4.00;;;9.10;99.90;;;;;;5058440;28;20045;-71
2022/03/09 03:19:04;;;;;;;4.75;3.35;;;9.10;99.90;;;;;;5078747;28;20353;-71
2022/03/09 03:21:30;;;;;;;4.53;3.05;;;9.10;99.90;;;;;;5057424;28;20048;-70
2022/03/09 03:23:56;;;;;;;4.85;2.53;;;9.10;99.90;;;;;;5075883;28;20040;-70
2022/03/09 03:26:24;;;;;;;4.75;2.60;;;9.10;99.90;;;;;;5075496;28;20043;-70
2022/03/09 03:28:51;;;;;;;5.80;2.78;;;9.10;99.90;;;;;;5075584;28;20119;-71
2022/03/09 03:31:21;;;;;;;4.28;2.55;;;9.10;99.90;;;;;;5075246;28;20459;-70
2022/03/09 03:33:47;;;;;;;4.85;2.80;;;9.10;99.90;;;;;;5075082;28;20028;-71
2022/03/09 03:36:17;;;;;;;3.90;2.70;;;9.10;99.90;;;;;;5074288;28;20032;-71
2022/03/09 03:38:42;;;;;;;2.88;2.40;;;9.10;99.90;;;;;;5077683;28;20044;-71
2022/03/09 03:41:08;;;;;;;4.45;2.42;;;9.10;99.90;;;;;;5074547;28;20533;-71
2022/03/09 03:43:34;;;;;;;3.90;2.40;;;9.10;99.90;;;;;;5075151;28;20067;-70
2022/03/09 03:46:00;;;;;;;3.78;2.60;;;9.10;99.90;;;;;;5053208;28;20071;-72
2022/03/09 03:48:26;;;;;;;3.53;2.13;;;9.10;99.90;;;;;;5073246;28;20036;-71
2022/03/09 03:50:52;;;;;;;5.43;2.58;;;9.10;99.90;;;;;;5079363;28;20442;-70
2022/03/09 03:53:18;;;;;;;4.93;2.25;;;9.10;99.90;;;;;;5075488;28;20040;-71
2022/03/09 03:55:46;;;;;;;4.03;2.40;;;9.10;99.90;;;;;;5076128;28;20033;-70
2022/03/09 03:58:12;;;;;;;3.55;2.47;;;9.10;99.90;;;;;;5060306;28;20076;-72
2022/03/09 04:00:38;;;;;;;4.50;2.63;;;9.10;99.90;;;;;;5062050;28;20511;-72
2022/03/09 04:03:05;;;;;;;5.75;2.90;;;9.10;99.90;;;;;;5048642;28;20048;-71
2022/03/09 04:05:31;;;;;;;4.35;3.00;;;9.00;99.90;;;;;;5048045;28;20037;-71
2022/03/09 04:07:57;;;;;;;4.70;3.00;;;9.00;99.90;;;;;;5053312;28;20048;-71
2022/03/09 04:10:23;;;;;;;4.53;3.20;;;8.90;99.90;;;;;;5056477;28;20037;-71
2022/03/09 04:12:49;;;;;;;4.57;2.92;;;8.90;99.90;;;;;;5055414;28;20055;-70
2022/03/09 04:15:15;;;;;;;4.35;3.15;;;8.90;99.90;;;;;;5058325;28;20044;-71
2022/03/09 04:17:43;;;;;;;5.30;3.35;;;8.90;99.90;;;;;;5041352;28;20053;-70
2022/03/09 04:20:10;;;;;;;4.85;3.03;;;8.80;99.90;;;;;;5054211;28;20044;-71
2022/03/09 04:22:36;;;;;;;6.93;3.60;;;8.80;99.90;;;;;;5056682;28;20033;-70
2022/03/09 04:25:02;;;;;;;5.50;3.20;;;8.80;99.90;;;;;;5057811;28;20079;-71
2022/03/09 04:27:28;;;;;;;5.95;3.47;;;8.70;99.90;;;;;;5053335;28;20158;-71
2022/03/09 04:29:54;;;;;;;5.65;3.65;;;8.70;99.90;;;;;;5056559;28;20147;-70
2022/03/09 04:32:20;;;;;;;5.07;3.60;;;8.80;99.90;;;;;;5053771;28;20056;-69
2022/03/09 04:34:46;;;;;;;5.72;3.60;;;8.70;99.90;;;;;;5055194;28;20181;-71
2022/03/09 04:37:12;;;;;;;5.47;3.60;;;8.70;99.90;;;;;;5055044;28;20131;-71
2022/03/09 04:39:38;;;;;;;5.40;3.80;;;8.80;99.90;;;;;;5056378;28;20051;-71
2022/03/09 04:42:04;;;;;;;5.60;3.85;;;8.80;99.90;;;;;;5054611;28;20502;-71
2022/03/09 04:44:29;;;;;;;5.35;3.67;;;8.90;99.90;;;;;;5054175;28;20055;-72
2022/03/09 04:46:55;;;;;;;6.30;3.67;;;8.90;99.90;;;;;;5053303;28;20036;-71
2022/03/09 04:49:21;;;;;;;5.45;3.50;;;9.00;99.90;;;;;;5057988;28;20033;-71
2022/03/09 04:51:48;;;;;;;4.35;3.38;;;9.00;99.90;;;;;;5057609;28;20098;-72
2022/03/09 04:54:14;;;;;;;4.82;3.65;;;9.10;99.90;;;;;;5055303;28;20033;-72
2022/03/09 04:56:39;;;;;;;6.30;3.75;;;9.10;99.90;;;;;;5052270;28;20037;-71
2022/03/09 04:59:05;;;;;;;4.93;3.22;;;9.10;99.90;;;;;;5056263;28;20099;-70
2022/03/09 05:01:31;;;;;;;4.22;3.25;;;9.10;99.90;;;;;;5034486;28;20198;-71
2022/03/09 05:03:57;;;;;;;5.40;3.45;;;9.10;99.90;;;;;;5050505;28;20120;-70
2022/03/09 05:06:23;;;;;;;6.18;3.75;;;9.10;99.90;;;;;;5053712;28;20036;-70
2022/03/09 05:08:49;;;;;;;5.43;3.70;;;9.20;99.90;;;;;;5053901;28;20471;-70
2022/03/09 05:11:14;;;;;;;6.30;3.70;;;9.20;99.90;;;;;;5052991;28;20120;-71
2022/03/09 05:13:40;;;;;;;5.40;3.72;;;9.20;99.90;;;;;;5056272;28;20044;-71
2022/03/09 05:16:06;;;;;;;6.90;4.30;;;9.30;99.90;;;;;;5050805;28;20040;-71
2022/03/09 05:18:33;;;;;;;6.40;4.28;;;9.30;99.90;;;;;;5056617;28;20040;-72
2022/03/09 05:20:58;;;;;;;6.97;4.72;;;9.30;99.90;;;;;;5056437;28;20132;-72
2022/03/09 05:23:24;;;;;;;8.75;5.72;;;9.40;99.90;;;;;;5056363;28;20119;-72
2022/03/09 05:25:50;;;;;;;9.77;6.32;;;9.40;99.90;;;;;;5057709;28;20458;-70
2022/03/09 05:28:16;;;;;;;8.85;6.38;;;9.50;99.90;;;;;;5054767;28;20025;-72
2022/03/09 05:30:41;;;;;;;9.80;6.93;;;9.50;99.90;;;;;;5056640;28;20037;-71
2022/03/09 05:33:07;;;;;;;9.55;7.20;;;9.60;99.90;;;;;;5051866;28;20067;-71
2022/03/09 05:35:33;;;;;;;10.93;6.97;;;9.60;99.90;;;;;;5049483;28;20037;-69
2022/03/09 05:37:59;;;;;;;11.25;8.00;;;9.60;99.90;;;;;;5055462;28;20055;-72
2022/03/09 05:40:25;;;;;;;10.70;8.43;;;9.60;99.90;;;;;;5053734;28;20037;-70
2022/03/09 05:42:51;;;;;;;12.32;9.23;;;9.60;99.90;;;;;;5051310;28;20045;-70
2022/03/09 05:45:17;;;;;;;12.40;10.23;;;9.70;99.90;;;;;;5053589;28;20052;-71
2022/03/09 05:47:43;;;;;;;14.35;10.60;;;9.70;99.90;;;;;;5060326;28;20045;-69
2022/03/09 05:50:09;;;;;;;17.73;12.80;;;9.70;99.90;;;;;;5054329;28;20041;-70
2022/03/09 05:52:35;;;;;;;15.65;11.55;;;9.60;99.90;;;;;;5048526;28;20434;-71
2022/03/09 05:55:01;;;;;;;14.13;11.13;;;9.70;99.90;;;;;;5040998;28;20047;-70
2022/03/09 05:57:27;;;;;;;14.57;10.57;;;9.70;99.90;;;;;;5058345;28;20638;-71
2022/03/09 05:59:54;;;;;;;13.40;11.15;;;9.70;99.90;;;;;;5058245;28;20395;-71
2022/03/09 06:02:20;;;;;;;16.83;11.95;;;9.70;99.90;;;;;;5055929;28;20039;-71
2022/03/09 06:04:46;;;;;;;16.67;12.75;;;9.70;99.90;;;;;;5060112;28;20041;-71
2022/03/09 06:07:12;;;;;;;16.75;12.02;;;9.70;99.90;;;;;;5060870;28;20448;-71
2022/03/09 06:09:38;;;;;;;16.58;12.27;;;9.80;99.90;;;;;;5062267;28;20116;-71
2022/03/09 06:12:05;;;;;;;19.02;14.68;;;9.80;99.90;;;;;;5055978;28;20036;-71
2022/03/09 06:14:31;;;;;;;17.00;13.38;;;9.80;99.90;;;;;;5056331;28;20037;-70
2022/03/09 06:16:57;;;;;;;18.42;14.63;;;9.80;99.90;;;;;;5046352;28;20071;-73
2022/03/09 06:19:23;;;;;;;16.50;13.13;;;9.80;99.90;;;;;;5073091;28;20045;-72
2022/03/09 06:21:48;;;;;;;17.42;14.55;;;9.90;99.90;;;;;;5046247;28;20033;-73
2022/03/09 06:24:18;;;;;;;18.77;13.40;;;9.90;99.90;;;;;;5034905;28;20037;-72
2022/03/09 06:26:44;;;;;;;17.45;14.07;;;9.90;99.90;;;;;;5041849;28;20037;-71
2022/03/09 06:29:11;;;;;;;17.77;12.85;;;9.90;99.90;;;;;;5054833;28;20048;-72
2022/03/09 06:31:37;;;;;;;15.13;12.00;;;9.90;99.90;;;;;;5056350;28;20487;-73
2022/03/09 06:34:03;;;;;;;14.50;11.18;;;9.80;99.90;;;;;;5060661;28;20132;-71
2022/03/09 06:36:29;;;;;;;15.80;11.13;;;9.80;99.90;;;;;;5057564;28;20171;-72
2022/03/09 06:38:54;;;;;;;14.32;12.02;;;9.80;99.90;;;;;;5059942;28;20044;-73
2022/03/09 06:41:20;;;;;;;18.63;11.82;;;9.80;99.90;;;;;;5063502;28;20043;-70
2022/03/09 06:43:46;;;;;;;16.05;11.70;;;9.80;99.90;;;;;;5078823;28;20537;-71
2022/03/09 06:46:12;;;;;;;15.05;10.88;;;9.80;99.90;;;;;;5060499;28;20033;-72
2022/03/09 06:48:38;;;;;;;16.73;12.13;;;9.90;99.90;;;;;;5073569;28;20543;-74
2022/03/09 06:51:04;;;;;;;16.20;11.57;;;9.90;99.90;;;;;;5071485;28;20075;-71
2022/03/09 06:53:30;;;;;;;16.25;12.10;;;9.90;99.90;;;;;;5055040;28;20069;-71
2022/03/09 06:55:56;;;;;;;14.40;11.27;;;9.90;99.90;;;;;;5058695;28;20170;-70
2022/03/09 06:58:23;;;;;;;13.32;10.93;;;10.00;99.90;;;;;;5071329;28;21112;-70
2022/03/09 07:00:49;;;;;;;14.02;9.90;;;10.00;99.90;;;;;;5077559;28;20127;-71
2022/03/09 07:03:15;;;;;;;14.80;10.80;;;10.00;99.90;;;;;;5076747;28;20044;-70
2022/03/09 07:05:41;;;;;;;13.52;10.32;;;10.00;99.90;;;;;;5073268;28;20033;-71
2022/03/09 07:08:07;;;;;;;14.05;10.00;;;10.00;99.90;;;;;;5060699;28;20077;-71
2022/03/09 07:10:33;;;;;;;15.43;10.48;;;10.00;99.90;;;;;;5062852;28;20065;-72
2022/03/09 07:12:59;;;;;;;13.50;10.48;;;10.00;99.90;;;;;;5067298;28;20028;-71
2022/03/09 07:15:25;;;;;;;11.75;9.55;;;10.00;99.90;;;;;;5056953;28;20422;-71
2022/03/09 07:17:51;;;;;;;13.52;10.05;;;10.10;99.90;;;;;;5064013;28;20040;-70
2022/03/09 07:20:18;;;;;;;13.20;9.75;;;10.10;99.90;;;;;;5060414;28;20066;-71
2022/03/09 07:22:44;;;;;;;12.77;8.80;;;10.20;99.90;;;;;;5057152;28;20070;-72
2022/03/09 07:25:11;;;;;;;12.25;8.38;;;10.30;99.90;;;;;;5075524;28;20156;-71
2022/03/09 07:27:38;;;;;;;10.05;8.70;;;10.40;99.90;;;;;;5055420;28;20509;-73
2022/03/09 07:30:05;;;;;;;10.20;8.20;;;10.50;99.90;;;;;;5073234;28;20387;-72
2022/03/09 07:32:31;;;;;;;8.57;7.13;;;10.50;99.90;;;;;;5076499;28;20040;-72
2022/03/09 07:34:56;;;;;;;15.15;7.93;;;10.60;99.90;;;;;;5075015;28;20048;-71
2022/03/09 07:37:22;;;;;;;10.15;7.38;;;10.70;99.90;;;;;;5074028;28;20049;-71
2022/03/09 07:39:48;;;;;;;10.88;7.25;;;10.70;99.90;;;;;;5074429;28;20149;-72
2022/03/09 07:42:14;;;;;;;10.88;7.47;;;10.70;99.90;;;;;;5059530;28;20476;-72
2022/03/09 07:44:40;;;;;;;9.80;7.80;;;10.80;99.90;;;;;;5076579;28;20036;-71
2022/03/09 07:47:06;;;;;;;10.23;7.25;;;10.80;99.90;;;;;;5070903;28;20571;-72
2022/03/09 07:49:37;;;;;;;9.80;7.30;;;10.90;99.90;;;;;;5070540;28;20037;-71
2022/03/09 07:52:04;;;;;;;9.70;7.43;;;11.00;99.90;;;;;;5075907;28;20040;-70
2022/03/09 07:54:30;;;;;;;9.85;7.00;;;11.00;99.90;;;;;;5061440;28;20372;-70
2022/03/09 07:56:56;;;;;;;11.82;7.40;;;11.00;99.90;;;;;;5057602;28;20033;-71
2022/03/09 07:59:22;;;;;;;9.02;6.78;;;11.10;99.90;;;;;;5046348;28;20999;-73
2022/03/09 08:01:52;;;;;;;15.02;6.93;;;11.20;99.90;;;;;;5054089;28;20040;-72
2022/03/09 08:04:23;;;;;;;10.38;6.65;;;11.20;99.90;;;;;;5052545;28;20097;-72
2022/03/09 08:06:53;;;;;;;7.50;5.93;;;11.30;99.90;;;;;;5036671;28;20071;-73
2022/03/09 08:09:19;;;;;;;9.85;6.78;;;11.40;99.90;;;;;;5035529;28;20036;-72
2022/03/09 08:11:45;;;;;;;9.20;6.22;;;11.40;99.90;;;;;;5046423;28;20028;-71
2022/03/09 08:14:12;;;;;;;7.72;5.78;;;11.40;99.90;;;;;;5046042;28;20041;-72
2022/03/09 08:16:38;;;;;;;9.38;5.50;;;11.50;99.90;;;;;;5042446;28;20049;-71
2022/03/09 08:19:04;;;;;;;8.43;5.45;;;11.50;99.90;;;;;;5052606;28;20373;-71
2022/03/09 08:21:31;;;;;;;8.55;5.22;;;11.50;99.90;;;;;;5059911;28;20059;-72
2022/03/09 08:23:57;;;;;;;8.07;5.55;;;11.40;99.90;;;;;;5031892;28;20962;-71
2022/03/09 08:26:23;;;;;;;6.90;5.32;;;11.40;99.90;;;;;;5053261;28;20060;-71
2022/03/09 08:28:49;;;;;;;9.15;5.68;;;11.40;99.90;;;;;;5034163;28;20048;-71
2022/03/09 08:31:16;;;;;;;8.35;5.28;;;11.30;99.90;;;;;;5054715;28;20028;-71
2022/03/09 08:33:42;;;;;;;9.77;6.28;;;11.30;99.90;;;;;;5044826;28;20044;-73
2022/03/09 08:36:11;;;;;;;10.40;7.13;;;11.30;99.90;;;;;;5038430;28;20500;-71
2022/03/09 08:38:37;;;;;;;12.95;7.60;;;11.30;99.90;;;;;;5042237;28;20358;-71
2022/03/09 08:41:02;;;;;;;10.48;8.32;;;11.30;99.90;;;;;;5042505;28;20152;-72
2022/03/09 08:43:28;;;;;;;13.07;8.50;;;11.30;99.90;;;;;;5038069;28;20036;-72
2022/03/09 08:45:54;;;;;;;13.52;9.27;;;11.40;99.90;;;;;;5050158;28;20055;-72
2022/03/09 08:48:20;;;;;;;14.77;9.30;;;11.40;99.90;;;;;;5048568;28;20041;-73
2022/03/09 08:50:47;;;;;;;16.63;9.75;;;11.40;99.90;;;;;;5047896;28;20037;-72
2022/03/09 08:53:12;;;;;;;18.05;10.30;;;11.40;99.90;;;;;;5030796;28;20127;-71
2022/03/09 08:55:38;;;;;;;14.10;10.63;;;11.50;99.90;;;;;;5040301;28;20044;-72
2022/03/09 08:58:04;;;;;;;16.45;10.60;;;11.50;99.90;;;;;;5042009;28;20513;-72
2022/03/09 09:00:30;;;;;;;15.38;11.52;;;11.40;99.90;;;;;;5029173;28;20037;-72
2022/03/09 09:02:56;;;;;;;15.52;11.20;;;11.40;99.90;;;;;;5044049;28;20045;-73
2022/03/09 09:05:22;;;;;;;16.17;11.35;;;11.40;99.90;;;;;;5037722;28;20043;-72
2022/03/09 09:07:48;;;;;;;16.13;11.05;;;11.50;99.90;;;;;;5038074;28;20094;-71
2022/03/09 09:10:15;;;;;;;14.75;11.63;;;11.60;99.90;;;;;;5039098;28;20041;-72
2022/03/09 09:12:41;;;;;;;14.52;11.18;;;11.60;99.90;;;;;;5037260;28;20047;-72
2022/03/09 09:15:07;;;;;;;15.55;11.60;;;11.60;99.90;;;;;;5040376;28;20954;-72
2022/03/09 09:17:34;;;;;;;18.10;12.27;;;11.70;99.90;;;;;;5039802;28;20057;-76
2022/03/09 09:20:00;;;;;;;19.13;11.15;;;11.80;99.90;;;;;;5041307;28;20041;-72
2022/03/09 09:22:26;;;;;;;17.25;11.32;;;11.70;99.90;;;;;;5037239;28;20483;-72
2022/03/09 09:24:52;;;;;;;19.17;11.85;;;11.80;99.90;;;;;;5040874;28;20041;-74
2022/03/09 09:27:18;;;;;;;19.13;11.77;;;11.80;99.90;;;;;;5038355;28;20047;-76
2022/03/09 09:29:43;;;;;;;15.75;11.15;;;11.80;99.90;;;;;;5042514;28;20044;-73
2022/03/09 09:32:09;;;;;;;14.80;11.30;;;11.80;99.90;;;;;;5037029;28;20048;-73
2022/03/09 09:34:35;;;;;;;14.77;10.55;;;11.80;99.90;;;;;;5048412;28;20040;-72
2022/03/09 09:37:02;;;;;;;15.50;11.25;;;11.80;99.90;;;;;;5047065;28;20148;-72
2022/03/09 09:39:28;;;;;;;15.50;11.02;;;11.70;99.90;;;;;;5058083;28;20133;-72
2022/03/09 09:41:54;;;;;;;16.60;10.63;;;11.70;99.90;;;;;;5039469;28;20036;-73
2022/03/09 09:44:24;;;;;;;15.73;10.73;;;11.60;99.90;;;;;;5032443;28;20044;-72
2022/03/09 09:46:51;;;;;;;17.60;10.43;;;11.60;99.90;;;;;;5060844;28;20036;-74
2022/03/09 09:49:23;;;;;;;18.52;10.45;;;11.50;99.90;;;;;;5023220;28;20029;-74
2022/03/09 09:51:51;;;;;;;15.02;10.25;;;11.50;99.90;;;;;;5042393;28;20036;-73
2022/03/09 09:54:18;;;;;;;13.20;9.10;;;11.60;99.90;;;;;;5045100;28;20174;-74
2022/03/09 09:56:44;;;;;;;15.05;10.43;;;11.60;99.90;;;;;;5043347;28;20041;-74
2022/03/09 09:59:10;;;;;;;13.35;9.05;;;11.60;99.90;;;;;;5046560;28;20037;-73
2022/03/09 10:01:36;;;;;;;11.52;8.35;;;11.70;99.90;;;;;;5043618;28;20025;-76
2022/03/09 10:04:03;;;;;;;15.25;10.38;;;11.70;99.90;;;;;;5041779;28;20619;-73
2022/03/09 10:06:30;;;;;;;12.70;9.38;;;11.80;99.90;;;;;;5046490;28;20025;-73
2022/03/09 10:09:03;;;;;;;11.85;9.65;;;11.90;99.90;;;;;;5049798;28;20040;-73
2022/03/09 10:11:49;;;;;;;13.48;8.98;;;12.00;99.90;;;;;;5052482;28;20120;-72
2022/03/09 10:14:17;;;;;;;15.88;9.88;;;12.10;99.90;;;;;;5027854;28;20036;-72
2022/03/09 10:17:04;;;;;;;14.77;9.00;;;12.10;99.90;;;;;;5034562;28;20114;-72
2022/03/09 10:19:37;;;;;;;13.80;10.25;;;12.10;99.90;;;;;;5045583;28;20115;-71
2022/03/09 10:22:31;;;;;;;12.05;8.88;;;12.10;99.90;;;;;;5023797;28;20056;-72
2022/03/09 10:25:01;;;;;;;12.07;8.43;;;12.00;99.90;;;;;;5049125;28;20111;-71
2022/03/09 10:27:36;;;;;;;15.55;9.00;;;11.90;99.90;;;;;;5049800;28;20033;-70
2022/03/09 10:30:19;;;;;;;14.38;9.70;;;11.60;99.90;;;;;;5059390;28;20036;-71
2022/03/09 10:32:57;;;;;;;13.48;9.00;;;11.50;99.90;;;;;;5054141;28;20586;-71
2022/03/09 10:35:31;;;;;;;14.07;9.32;;;11.30;99.90;;;;;;5044309;28;20037;-72
2022/03/09 10:38:06;;;;;;;16.88;9.02;;;11.30;99.90;;;;;;5051977;28;20457;-72
2022/03/09 10:40:41;;;;;;;15.30;8.63;;;11.30;99.90;;;;;;5048174;28;20084;-72
2022/03/09 10:43:18;;;;;;;17.27;9.13;;;11.30;99.90;;;;;;5033979;28;20052;-71
2022/03/09 10:46:09;;;;;;;15.38;8.70;;;11.40;99.90;;;;;;5052596;28;20067;-72
2022/03/09 10:48:57;;;;;;;14.88;8.13;;;11.50;99.90;;;;;;5052143;28;20595;-72
2022/03/09 10:51:42;;;;;;;11.60;7.43;;;11.70;99.90;;;;;;5053752;28;20075;-71
2022/03/09 10:54:29;;;;;;;10.52;7.25;;;11.80;99.90;;;;;;5062503;28;20109;-71
2022/03/09 10:57:09;;;;;;;10.02;6.88;;;12.00;99.90;;;;;;5064693;28;20036;-71
2022/03/09 10:59:48;;;;;;;8.40;6.82;;;12.10;99.90;;;;;;5043320;28;20143;-71
2022/03/09 11:02:19;;;;;;;12.95;6.47;;;12.30;99.90;;;;;;5050216;28;20480;-72
2022/03/09 11:05:08;;;;;;;7.80;6.25;;;12.50;99.90;;;;;;5067353;28;20089;-73
2022/03/09 11:07:38;;;;;;;9.40;6.25;;;12.80;99.90;;;;;;5061912;28;20032;-71
2022/03/09 11:10:06;;;;;;;11.52;6.05;;;12.90;99.90;;;;;;5068432;28;20433;-73
2022/03/09 11:12:32;;;;;;;8.95;5.75;;;12.90;99.90;;;;;;5046791;28;20452;-73
2022/03/09 11:14:58;;;;;;;11.38;6.30;;;13.00;99.90;;;;;;5059569;28;20147;-73
2022/03/09 11:17:25;;;;;;;12.95;6.05;;;13.30;99.90;;;;;;5036504;28;20044;-73
2022/03/09 11:19:51;;;;;;;8.82;5.30;;;13.40;99.90;;;;;;5049215;28;20143;-71
2022/03/09 11:22:17;;;;;;;8.82;5.15;;;13.30;99.90;;;;;;5038008;28;20064;-72
2022/03/09 11:24:43;;;;;;;7.47;5.00;;;13.30;99.90;;;;;;5070277;28;20048;-72
2022/03/09 11:27:10;;;;;;;9.15;5.45;;;13.60;99.90;;;;;;5064811;28;20135;-72
2022/03/09 11:29:38;;;;;;;7.50;5.07;;;13.80;99.90;;;;;;5045998;28;20051;-72
2022/03/09 11:32:07;;;;;;;9.90;5.00;;;13.70;99.90;;;;;;5048573;28;20040;-73
2022/03/09 11:34:45;;;;;;;8.43;4.90;;;13.90;99.90;;;;;;5036742;28;20501;-74
2022/03/09 11:37:16;;;;;;;8.70;4.28;;;14.10;99.90;;;;;;5054737;28;20112;-72
2022/03/09 11:39:44;;;;;;;6.95;3.85;;;14.60;99.90;;;;;;5053455;28;20554;-73
2022/03/09 11:42:22;;;;;;;7.20;3.78;;;14.90;99.90;;;;;;5067137;28;20117;-72
2022/03/09 11:45:29;;;;;;;7.93;4.50;;;14.80;99.90;;;;;;5046265;28;20037;-73
2022/03/09 11:48:14;;;;;;;7.75;3.67;;;15.60;99.90;;;;;;5050562;28;20032;-71
2022/03/09 11:50:46;;;;;;;7.88;3.95;;;15.60;99.90;;;;;;5035499;28;20064;-72
2022/03/09 11:53:13;;;;;;;7.45;3.42;;;16.00;99.90;;;;;;5047359;28;20487;-72
2022/03/09 11:55:40;;;;;;;6.35;3.35;;;15.90;99.90;;;;;;5039763;28;20037;-72
2022/03/09 11:58:08;;;;;;;6.85;2.90;;;15.10;99.90;;;;;;5015547;28;20084;-72
2022/03/09 12:00:57;;;;;;;8.50;3.45;;;14.90;99.90;;;;;;5040401;28;20123;-73
2022/03/09 12:03:40;;;;;;;6.45;3.08;;;14.70;99.90;;;;;;5063129;28;20131;-73
2022/03/09 12:06:44;;;;;;;4.85;2.80;;;14.30;99.90;;;;;;5047279;28;20544;-73
2022/03/09 12:09:10;;;;;;;4.50;2.83;;;14.20;99.90;;;;;;5055161;28;20064;-75
2022/03/09 12:12:10;;;;;;;4.68;2.45;;;15.00;99.90;;;;;;5054989;28;20029;-74
2022/03/09 12:14:59;;;;;;;6.03;2.50;;;15.70;99.90;;;;;;5053521;28;20043;-74
2022/03/09 12:17:39;;;;;;;6.13;2.47;;;16.60;99.90;;;;;;5061218;28;20052;-73
2022/03/09 12:20:25;;;;;;;6.13;2.35;;;17.00;99.90;;;;;;5054215;28;20048;-73
2022/03/09 12:23:04;;;;;;;6.22;2.60;;;17.40;99.90;;;;;;5043215;28;20049;-73
2022/03/09 12:25:50;;;;;;;6.85;2.80;;;17.50;99.90;;;;;;5045500;28;20044;-74
2022/03/09 12:28:25;;;;;;;4.63;2.28;;;17.20;99.90;;;;;;5030381;28;20040;-74
2022/03/09 12:30:58;;;;;;;7.15;2.50;;;17.50;99.90;;;;;;5054076;28;20045;-73
2022/03/09 12:33:32;;;;;;;4.07;2.15;;;17.70;99.90;;;;;;5054215;28;20145;-73
2022/03/09 12:36:08;;;;;;;5.25;2.50;;;16.90;99.90;;;;;;5055343;28;20170;-75
2022/03/09 12:38:50;;;;;;;6.13;2.10;;;17.30;99.90;;;;;;5061106;28;20074;-74
2022/03/09 12:41:33;;;;;;;5.50;2.80;;;18.20;99.90;;;;;;5079029;28;20126;-73
2022/03/09 12:44:11;;;;;;;6.68;2.47;;;17.50;99.90;;;;;;5076579;28;20037;-74
2022/03/09 12:46:40;;;;;;;5.18;2.50;;;16.60;99.90;;;;;;5064371;28;20037;-75
2022/03/09 12:49:14;;;;;;;5.93;2.88;;;16.30;99.90;;;;;;5070124;28;20159;-74
2022/03/09 12:51:53;;;;;;;5.50;3.15;;;17.00;99.90;;;;;;5033669;28;20064;-73
2022/03/09 12:54:34;;;;;;;4.55;2.70;;;17.00;99.90;;;;;;5031522;28;20499;-74